Terminal Aerodrome Forecast
Issued by NWS

Home | Current Version | Previous Version | Text Only | Print | Product List | Glossary On
Versions: 1 2 3 4 5 6 7 8 9 10 11 12 13 14 15 16
751
FTUS43 KILX 120748 AAA
TAFBMI
TAF AMD
KBMI 120748Z 1208/1306 22005KT 5SM -SN SCT015 OVC040
      TEMPO 1208/1210 2SM -SN BKN015
     FM121100 28008KT P6SM OVC025
     FM121700 31013G18KT P6SM BKN025
     FM122000 32018G26KT P6SM SCT025=

USA.gov is the U.S. government's official web portal to all federal, state and local government web resources and services.